createdAt,value
2017-09-06T00:01:14.689Z,75.40
2017-09-06T00:03:42.570Z,75.50
2017-09-06T00:06:10.075Z,75.60
2017-09-06T00:08:37.577Z,75.80
2017-09-06T00:11:15.899Z,76.00
2017-09-06T00:13:43.406Z,76.00
2017-09-06T00:16:10.898Z,75.90
2017-09-06T00:18:38.791Z,76.00
2017-09-06T00:21:07.049Z,76.10
2017-09-06T00:23:45.210Z,76.00
2017-09-06T00:26:16.037Z,77.00
2017-09-06T00:28:44.548Z,76.20
2017-09-06T00:31:12.044Z,76.20
2017-09-06T00:33:45.684Z,76.30
2017-09-06T00:36:13.550Z,76.30
2017-09-06T00:38:46.815Z,76.00
2017-09-06T00:41:24.708Z,75.80
2017-09-06T00:43:52.310Z,75.60
2017-09-06T00:46:26.015Z,75.30
2017-09-06T00:48:53.511Z,74.90
2017-09-06T00:51:20.995Z,74.90
2017-09-06T00:53:55.117Z,74.70
2017-09-06T00:56:23.409Z,74.50
2017-09-06T00:58:54.949Z,74.40
2017-09-06T01:01:22.448Z,74.40
2017-09-06T01:03:56.032Z,74.30
2017-09-06T01:06:23.515Z,74.30
2017-09-06T01:08:51.005Z,74.20
2017-09-06T01:11:24.755Z,74.30
2017-09-06T01:13:52.259Z,74.30
2017-09-06T01:16:26.032Z,74.20
2017-09-06T01:18:53.580Z,74.30
2017-09-06T01:21:21.407Z,74.20
2017-09-06T01:23:48.903Z,74.20
2017-09-06T01:26:16.400Z,74.30
2017-09-06T01:28:43.900Z,74.60
2017-09-06T01:31:11.397Z,74.70
2017-09-06T01:33:38.897Z,74.70
2017-09-06T01:36:14.787Z,74.80
2017-09-06T01:38:46.014Z,74.70
2017-09-06T01:41:13.509Z,74.70
2017-09-06T01:43:41.024Z,74.70
2017-09-06T01:46:08.544Z,74.70
2017-09-06T01:48:45.671Z,74.80
2017-09-06T01:51:13.665Z,74.80
2017-09-06T01:53:44.216Z,75.00
2017-09-06T01:56:15.239Z,75.10
2017-09-06T01:58:42.736Z,75.10
2017-09-06T02:01:17.058Z,75.30
2017-09-06T02:03:44.549Z,75.20
2017-09-06T02:06:12.036Z,75.30
2017-09-06T02:08:45.617Z,75.30
2017-09-06T02:11:14.453Z,75.50
2017-09-06T02:13:42.260Z,75.40
2017-09-06T02:16:16.352Z,75.50
2017-09-06T02:18:44.229Z,75.40
2017-09-06T02:21:15.069Z,75.40
2017-09-06T02:23:46.168Z,75.30
2017-09-06T02:26:13.676Z,75.60
2017-09-06T02:28:44.640Z,75.30
2017-09-06T02:31:12.127Z,75.50
2017-09-06T02:33:39.628Z,75.60
2017-09-06T02:36:07.148Z,75.40
2017-09-06T02:38:34.632Z,75.40
2017-09-06T02:41:05.487Z,75.60
2017-09-06T02:43:32.973Z,74.90
2017-09-06T02:46:00.470Z,76.30
2017-09-06T02:48:27.975Z,75.40
2017-09-06T02:50:55.473Z,75.30
2017-09-06T02:53:23.296Z,75.10
2017-09-06T02:55:50.824Z,75.10
2017-09-06T02:58:24.912Z,75.20
2017-09-06T03:00:52.414Z,75.10
2017-09-06T03:03:19.908Z,75.00
2017-09-06T03:05:47.425Z,75.00
2017-09-06T03:08:14.911Z,74.90
2017-09-06T03:10:46.344Z,75.00
2017-09-06T03:13:14.516Z,75.10
2017-09-06T03:15:42.019Z,74.90
2017-09-06T03:18:09.832Z,75.10
2017-09-06T03:20:44.066Z,74.90
2017-09-06T03:23:15.215Z,74.90
2017-09-06T03:25:43.472Z,74.90
2017-09-06T03:28:14.740Z,74.70
2017-09-06T03:30:45.136Z,74.80
2017-09-06T03:33:16.034Z,74.80
2017-09-06T03:35:43.515Z,74.80
2017-09-06T03:38:11.000Z,74.70
2017-09-06T03:40:44.957Z,74.60
2017-09-06T03:43:12.460Z,74.50
2017-09-06T03:45:40.348Z,74.60
2017-09-06T03:48:07.835Z,74.50
2017-09-06T03:50:46.033Z,74.60
2017-09-06T03:53:13.538Z,74.60
2017-09-06T03:55:44.663Z,74.80
2017-09-06T03:58:12.529Z,75.00
2017-09-06T04:00:40.019Z,75.30
2017-09-06T04:03:07.508Z,75.50
2017-09-06T04:05:45.129Z,75.60
2017-09-06T04:08:15.938Z,75.90
2017-09-06T04:10:44.599Z,76.00
2017-09-06T04:13:12.110Z,76.20
2017-09-06T04:15:46.343Z,76.30
2017-09-06T04:18:13.822Z,76.40
2017-09-06T04:20:44.871Z,76.60
2017-09-06T04:23:12.392Z,76.70
2017-09-06T04:25:39.888Z,76.80
2017-09-06T04:28:14.567Z,77.00
2017-09-06T04:30:42.073Z,77.30
2017-09-06T04:33:10.677Z,77.30
2017-09-06T04:35:38.175Z,77.30
2017-09-06T04:38:14.494Z,77.40
2017-09-06T04:40:41.987Z,77.70
2017-09-06T04:43:09.480Z,77.70
2017-09-06T04:45:36.985Z,77.80
2017-09-06T04:48:14.692Z,77.90
2017-09-06T04:50:42.544Z,78.00
2017-09-06T04:53:16.130Z,78.00
2017-09-06T04:55:44.536Z,77.90
2017-09-06T04:58:12.032Z,78.00
2017-09-06T05:00:39.538Z,78.10
2017-09-06T05:03:14.216Z,78.10
2017-09-06T05:05:41.699Z,78.10
2017-09-06T05:08:15.726Z,78.10
2017-09-06T05:10:43.985Z,77.80
2017-09-06T05:13:11.478Z,78.00
2017-09-06T05:15:39.755Z,77.80
2017-09-06T05:18:14.124Z,77.80
2017-09-06T05:20:41.904Z,77.80
2017-09-06T05:23:15.162Z,77.80
2017-09-06T05:25:42.948Z,78.70
2017-09-06T05:28:16.390Z,77.50
2017-09-06T05:30:44.247Z,77.40
2017-09-06T05:33:14.785Z,77.10
2017-09-06T05:35:45.921Z,77.10
2017-09-06T05:38:13.415Z,76.90
2017-09-06T05:40:40.908Z,76.90
2017-09-06T05:43:14.328Z,76.90
2017-09-06T05:45:41.833Z,76.70
2017-09-06T05:48:09.346Z,76.60
2017-09-06T05:50:36.844Z,76.60
2017-09-06T05:53:04.689Z,76.50
2017-09-06T05:55:32.208Z,76.50
2017-09-06T05:58:06.335Z,76.70
2017-09-06T06:00:34.601Z,77.50
2017-09-06T06:03:02.097Z,76.50
2017-09-06T06:05:29.609Z,76.40
2017-09-06T06:07:57.233Z,76.20
2017-09-06T06:10:24.726Z,75.90
2017-09-06T06:12:56.016Z,75.80
2017-09-06T06:15:23.885Z,75.80
2017-09-06T06:17:54.823Z,75.80
2017-09-06T06:20:25.969Z,75.50
2017-09-06T06:22:54.392Z,75.20
2017-09-06T06:25:21.944Z,75.00
2017-09-06T06:27:49.456Z,75.30
2017-09-06T06:30:16.943Z,74.90
2017-09-06T06:32:44.451Z,74.70
2017-09-06T06:35:15.348Z,74.60
2017-09-06T06:37:43.190Z,74.70
2017-09-06T06:40:10.711Z,74.90
2017-09-06T06:42:44.413Z,75.00
2017-09-06T06:45:14.915Z,75.00
2017-09-06T06:47:45.913Z,73.90
2017-09-06T06:50:13.416Z,74.30
2017-09-06T06:52:46.854Z,75.60
2017-09-06T06:55:14.352Z,76.80
2017-09-06T06:57:45.107Z,78.40
2017-09-06T07:00:15.861Z,79.40
2017-09-06T07:02:44.296Z,80.90
2017-09-06T07:05:15.531Z,81.90
2017-09-06T07:07:43.805Z,82.90
2017-09-06T07:10:11.293Z,82.80
2017-09-06T07:12:39.147Z,83.10
2017-09-06T07:15:14.138Z,83.30
2017-09-06T07:17:41.892Z,82.70
2017-09-06T07:20:15.511Z,82.80
2017-09-06T07:22:44.839Z,82.90
2017-09-06T07:25:16.067Z,82.30
2017-09-06T07:27:44.977Z,82.60
2017-09-06T07:30:12.468Z,82.00
2017-09-06T07:32:39.983Z,81.70
2017-09-06T07:35:08.251Z,81.30
2017-09-06T07:37:35.741Z,81.20
2017-09-06T07:40:03.601Z,81.40
2017-09-06T07:42:31.074Z,81.10
2017-09-06T07:45:05.456Z,81.30
2017-09-06T07:47:33.713Z,80.00
2017-09-06T07:50:06.249Z,80.00
2017-09-06T07:52:33.736Z,79.50
2017-09-06T07:55:07.176Z,78.90
2017-09-06T07:57:44.606Z,78.50
2017-09-06T08:00:12.390Z,77.70
2017-09-06T08:02:45.715Z,76.20
2017-09-06T08:05:13.493Z,75.10
2017-09-06T08:08:00.688Z,74.30
2017-09-06T08:10:28.480Z,73.20
2017-09-06T08:12:55.984Z,70.00
2017-09-06T08:15:24.198Z,68.40
2017-09-06T08:17:51.695Z,68.50
2017-09-06T08:20:19.196Z,66.60
2017-09-06T08:22:46.683Z,65.90
2017-09-06T08:25:14.944Z,64.40
2017-09-06T08:27:46.112Z,64.30
2017-09-06T08:30:13.599Z,63.20
2017-09-06T08:32:41.099Z,63.00
2017-09-06T08:35:14.540Z,63.50
2017-09-06T08:37:45.552Z,64.30
2017-09-06T08:40:13.364Z,63.40
2017-09-06T08:42:40.860Z,63.90
2017-09-06T08:45:15.746Z,63.20
2017-09-06T08:47:43.243Z,63.10
2017-09-06T08:50:10.739Z,65.00
2017-09-06T08:52:38.252Z,65.40
2017-09-06T08:55:14.173Z,67.60
2017-09-06T08:57:45.206Z,68.10
2017-09-06T09:00:15.712Z,69.90
2017-09-06T09:02:44.666Z,69.20
2017-09-06T09:05:12.151Z,68.70
2017-09-06T09:07:45.710Z,67.60
2017-09-06T09:10:13.209Z,65.70
2017-09-06T09:12:40.712Z,64.00
2017-09-06T09:15:14.288Z,63.70
2017-09-06T09:17:41.808Z,63.30
2017-09-06T09:20:15.542Z,62.00
2017-09-06T09:22:43.808Z,60.00
2017-09-06T09:25:15.301Z,60.00
2017-09-06T09:27:42.790Z,58.40
2017-09-06T09:30:10.281Z,57.50
2017-09-06T09:32:44.630Z,56.80
2017-09-06T09:35:12.126Z,53.00
2017-09-06T09:37:39.632Z,51.50
2017-09-06T09:40:13.968Z,50.50
2017-09-06T09:42:45.113Z,50.30
2017-09-06T09:45:15.693Z,49.20
2017-09-06T09:47:43.183Z,48.20
2017-09-06T09:50:16.807Z,47.90
2017-09-06T09:52:54.942Z,47.50
2017-09-06T09:55:22.439Z,48.10
2017-09-06T09:57:49.937Z,47.90
2017-09-06T10:00:24.364Z,50.00
2017-09-06T10:02:51.851Z,51.90
2017-09-06T10:05:25.169Z,52.00
2017-09-06T10:07:52.681Z,52.30
2017-09-06T10:10:26.912Z,49.20
2017-09-06T10:13:04.274Z,49.20
2017-09-06T10:15:32.107Z,49.90
2017-09-06T10:17:59.608Z,47.70
2017-09-06T10:20:27.115Z,47.10
2017-09-06T10:22:54.637Z,48.80
2017-09-06T10:25:22.134Z,51.10
2017-09-06T10:27:50.045Z,52.50
2017-09-06T10:30:17.538Z,53.40
2017-09-06T10:32:45.022Z,53.50
2017-09-06T10:35:15.636Z,53.60
2017-09-06T10:37:44.238Z,54.70
2017-09-06T10:40:14.838Z,55.60
2017-09-06T10:42:45.432Z,56.10
2017-09-06T10:45:16.349Z,56.30
2017-09-06T10:47:54.390Z,56.80
2017-09-06T10:50:22.326Z,56.60
2017-09-06T10:52:50.584Z,55.10
2017-09-06T10:55:18.849Z,54.50
2017-09-06T10:57:46.360Z,54.50
2017-09-06T11:00:14.751Z,54.80
2017-09-06T11:02:42.603Z,54.20
2017-09-06T11:05:10.095Z,52.70
2017-09-06T11:07:37.588Z,51.40
2017-09-06T11:10:05.167Z,48.60
2017-09-06T11:12:36.158Z,46.40
2017-09-06T11:15:03.656Z,44.60
2017-09-06T11:17:31.130Z,44.90
2017-09-06T11:20:04.944Z,46.00
2017-09-06T11:22:35.647Z,45.20
2017-09-06T11:25:03.148Z,44.10
2017-09-06T11:27:30.693Z,43.00
2017-09-06T11:30:04.364Z,41.10
2017-09-06T11:32:32.982Z,40.80
2017-09-06T11:35:04.207Z,40.80
2017-09-06T11:37:35.182Z,39.60
2017-09-06T11:40:02.716Z,39.60
2017-09-06T11:42:36.377Z,40.80
2017-09-06T11:45:04.298Z,42.50
2017-09-06T11:47:31.791Z,41.30
2017-09-06T11:49:59.608Z,39.90
2017-09-06T11:52:34.146Z,39.20
2017-09-06T11:55:05.369Z,38.30
2017-09-06T11:57:33.619Z,37.50
2017-09-06T12:00:01.108Z,37.40
2017-09-06T12:02:34.501Z,37.30
2017-09-06T12:05:02.764Z,37.70
2017-09-06T12:07:30.271Z,37.70
2017-09-06T12:09:57.780Z,37.40
2017-09-06T12:12:35.194Z,38.30
2017-09-06T12:15:02.720Z,38.30
2017-09-06T12:17:30.223Z,38.70
2017-09-06T12:19:57.791Z,38.70
2017-09-06T12:22:35.507Z,36.10
2017-09-06T12:25:03.339Z,34.10
2017-09-06T12:27:30.843Z,33.10
2017-09-06T12:29:58.348Z,31.80
2017-09-06T12:32:25.880Z,31.70
2017-09-06T12:34:53.388Z,29.80
2017-09-06T12:37:21.251Z,30.20
2017-09-06T12:39:48.753Z,29.80
2017-09-06T12:42:16.251Z,29.20
2017-09-06T12:44:43.757Z,29.40
2017-09-06T12:47:14.808Z,28.70
2017-09-06T12:49:45.540Z,29.60
2017-09-06T12:52:16.187Z,29.90
2017-09-06T12:54:45.112Z,29.60
2017-09-06T12:57:12.605Z,29.30
2017-09-06T12:59:40.096Z,30.40
2017-09-06T13:02:07.613Z,31.80
2017-09-06T13:04:45.549Z,34.00
2017-09-06T13:07:13.043Z,36.30
2017-09-06T13:09:46.979Z,38.40
2017-09-06T13:12:24.872Z,39.40
2017-09-06T13:14:52.362Z,40.90
2017-09-06T13:17:26.094Z,41.70
2017-09-06T13:19:54.714Z,42.20
2017-09-06T13:22:23.130Z,42.60
2017-09-06T13:24:50.943Z,43.00
2017-09-06T13:27:24.648Z,42.80
2017-09-06T13:29:52.528Z,43.40
2017-09-06T13:32:26.010Z,42.90
2017-09-06T13:34:53.879Z,43.00
2017-09-06T13:37:24.535Z,43.30
2017-09-06T13:39:55.689Z,43.80
2017-09-06T13:42:24.812Z,42.20
2017-09-06T13:44:52.318Z,41.80
2017-09-06T13:47:20.595Z,42.30
2017-09-06T13:49:54.672Z,42.30
2017-09-06T13:52:25.519Z,42.50
2017-09-06T13:54:56.066Z,42.00
2017-09-06T13:57:25.028Z,41.10
2017-09-06T13:59:55.439Z,40.70
2017-09-06T14:02:22.950Z,39.80
2017-09-06T14:04:56.560Z,40.50
2017-09-06T14:07:24.065Z,41.00
2017-09-06T14:09:51.896Z,41.40
2017-09-06T14:12:19.388Z,42.00
2017-09-06T14:14:46.890Z,42.20
2017-09-06T14:17:24.875Z,42.50
2017-09-06T14:19:52.488Z,42.50
2017-09-06T14:22:26.864Z,42.80
2017-09-06T14:24:55.112Z,40.10
2017-09-06T14:27:22.601Z,40.10
2017-09-06T14:29:56.228Z,41.20
2017-09-06T14:32:23.772Z,41.20
2017-09-06T14:34:51.276Z,40.20
2017-09-06T14:37:24.963Z,39.20
2017-09-06T14:39:56.070Z,38.60
2017-09-06T14:42:24.250Z,38.50
2017-09-06T14:44:51.752Z,37.80
2017-09-06T14:47:19.273Z,38.40
2017-09-06T14:49:46.761Z,39.20
2017-09-06T14:52:14.596Z,38.50
2017-09-06T14:54:42.868Z,38.80
2017-09-06T14:57:11.144Z,39.20
2017-09-06T14:59:44.727Z,39.10
2017-09-06T15:02:15.688Z,39.60
2017-09-06T15:04:43.223Z,40.00
2017-09-06T15:07:10.738Z,39.00
2017-09-06T15:09:44.908Z,39.70
2017-09-06T15:12:15.556Z,40.60
2017-09-06T15:14:43.077Z,40.80
2017-09-06T15:17:17.048Z,41.30
2017-09-06T15:19:44.552Z,41.60
2017-09-06T15:22:12.056Z,40.70
2017-09-06T15:24:39.543Z,40.80
2017-09-06T15:27:07.359Z,40.70
2017-09-06T15:29:34.865Z,41.30
2017-09-06T15:32:02.357Z,40.10
2017-09-06T15:34:35.727Z,39.70
2017-09-06T15:37:03.232Z,39.60
2017-09-06T15:39:35.330Z,40.20
2017-09-06T15:42:02.820Z,40.10
2017-09-06T15:44:31.201Z,40.00
2017-09-06T15:46:59.029Z,39.30
2017-09-06T15:49:26.528Z,38.20
2017-09-06T15:51:54.626Z,38.80
2017-09-06T15:54:23.453Z,39.00
2017-09-06T15:56:50.948Z,38.90
2017-09-06T15:59:25.306Z,38.90
2017-09-06T16:01:56.030Z,39.20
2017-09-06T16:04:24.301Z,40.60
2017-09-06T16:06:52.582Z,41.40
2017-09-06T16:09:20.080Z,41.40
2017-09-06T16:11:47.870Z,41.90
2017-09-06T16:14:25.443Z,42.50
2017-09-06T16:16:53.287Z,42.90
2017-09-06T16:19:20.778Z,42.70
2017-09-06T16:21:55.120Z,43.20
2017-09-06T16:24:22.646Z,43.20
2017-09-06T16:26:56.604Z,43.70
2017-09-06T16:29:24.870Z,44.00
2017-09-06T16:31:56.111Z,44.00
2017-09-06T16:34:23.904Z,45.30
2017-09-06T16:36:52.172Z,45.40
2017-09-06T16:39:20.437Z,44.70
2017-09-06T16:41:54.637Z,44.70
2017-09-06T16:44:25.684Z,45.00
2017-09-06T16:46:54.581Z,44.60
2017-09-06T16:49:22.100Z,45.00
2017-09-06T16:51:49.596Z,45.30
2017-09-06T16:54:17.128Z,45.20
2017-09-06T16:56:44.629Z,45.40
2017-09-06T16:59:12.398Z,45.40
2017-09-06T17:01:46.902Z,46.10
2017-09-06T17:04:14.734Z,46.00
2017-09-06T17:06:45.841Z,46.00
2017-09-06T17:09:14.914Z,46.20
2017-09-06T17:11:42.399Z,46.20
2017-09-06T17:14:09.900Z,46.40
2017-09-06T17:16:37.399Z,46.30
2017-09-06T17:19:15.353Z,46.40
2017-09-06T17:21:43.175Z,46.60
2017-09-06T17:24:10.669Z,46.70
2017-09-06T17:26:38.161Z,46.80
2017-09-06T17:29:14.181Z,46.90
2017-09-06T17:31:41.679Z,46.90
2017-09-06T17:34:15.717Z,47.10
2017-09-06T17:36:43.227Z,47.30
2017-09-06T17:39:10.728Z,47.70
2017-09-06T17:41:44.424Z,47.10
2017-09-06T17:44:15.373Z,47.50
2017-09-06T17:46:43.999Z,47.60
2017-09-06T17:49:14.817Z,48.20
2017-09-06T17:51:45.969Z,48.00
2017-09-06T17:54:14.345Z,48.00
2017-09-06T17:56:41.839Z,48.20
2017-09-06T17:59:09.344Z,48.50
2017-09-06T18:01:44.238Z,48.80
2017-09-06T18:04:12.045Z,49.30
2017-09-06T18:06:39.531Z,49.50
2017-09-06T18:09:14.905Z,49.80
2017-09-06T18:11:42.396Z,50.10
2017-09-06T18:14:09.886Z,50.50
2017-09-06T18:16:37.417Z,50.50
2017-09-06T18:19:04.921Z,50.70
2017-09-06T18:21:32.426Z,50.90
2017-09-06T18:23:59.926Z,50.90
2017-09-06T18:26:27.414Z,51.20
2017-09-06T18:29:05.224Z,51.40
2017-09-06T18:31:32.743Z,51.60
2017-09-06T18:34:00.300Z,52.20
2017-09-06T18:36:27.796Z,52.50
2017-09-06T18:39:05.769Z,53.20
2017-09-06T18:41:34.400Z,54.60
2017-09-06T18:44:04.987Z,54.60
2017-09-06T18:46:32.507Z,54.90
2017-09-06T18:49:00.767Z,55.10
2017-09-06T18:51:29.381Z,55.10
2017-09-06T18:53:56.935Z,55.10
2017-09-06T18:56:24.436Z,55.40
2017-09-06T18:58:51.931Z,55.60
2017-09-06T19:01:19.441Z,55.50
2017-09-06T19:03:47.276Z,55.50
2017-09-06T19:06:25.224Z,55.60
2017-09-06T19:08:53.085Z,55.70
2017-09-06T19:11:26.612Z,56.00
2017-09-06T19:13:54.684Z,56.10
2017-09-06T19:16:22.178Z,56.10
2017-09-06T19:18:49.672Z,56.10
2017-09-06T19:21:17.496Z,56.30
2017-09-06T19:23:55.403Z,56.20
2017-09-06T19:26:24.008Z,56.50
2017-09-06T19:28:55.085Z,56.50
2017-09-06T19:31:22.585Z,56.70
2017-09-06T19:33:50.350Z,56.60
2017-09-06T19:36:18.607Z,56.90
2017-09-06T19:38:54.784Z,56.90
2017-09-06T19:41:22.284Z,56.90
2017-09-06T19:43:49.778Z,57.00
2017-09-06T19:46:17.571Z,57.30
2017-09-06T19:48:55.527Z,57.50
2017-09-06T19:51:24.692Z,57.60
2017-09-06T19:53:52.186Z,57.60
2017-09-06T19:56:26.542Z,57.70
2017-09-06T19:58:54.039Z,58.00
2017-09-06T20:01:24.666Z,58.00
2017-09-06T20:03:52.444Z,57.90
2017-09-06T20:06:26.216Z,58.00
2017-09-06T20:08:54.793Z,58.20
2017-09-06T20:11:23.059Z,58.30
2017-09-06T20:13:56.736Z,58.20
2017-09-06T20:16:24.235Z,58.40
2017-09-06T20:18:51.723Z,58.50
2017-09-06T20:21:19.547Z,58.60
2017-09-06T20:23:47.800Z,58.40
2017-09-06T20:26:26.028Z,58.30
2017-09-06T20:28:53.528Z,58.50
2017-09-06T20:31:21.014Z,58.30
2017-09-06T20:33:55.126Z,58.40
2017-09-06T20:36:25.849Z,58.40
2017-09-06T20:38:53.347Z,58.50
2017-09-06T20:41:24.355Z,58.60
2017-09-06T20:43:51.850Z,58.90
2017-09-06T20:46:20.450Z,59.20
2017-09-06T20:48:54.361Z,59.10
2017-09-06T20:53:55.169Z,59.30
2017-09-06T20:56:22.646Z,59.40
2017-09-06T20:58:56.940Z,59.50
2017-09-06T21:01:24.440Z,59.50
2017-09-06T21:03:51.938Z,59.40
2017-09-06T21:06:19.444Z,59.40
2017-09-06T21:08:47.711Z,59.50
2017-09-06T21:11:25.858Z,59.40
2017-09-06T21:13:53.357Z,59.40
2017-09-06T21:16:20.849Z,59.50
2017-09-06T21:18:48.384Z,59.60
2017-09-06T21:21:15.880Z,59.60
2017-09-06T21:23:43.376Z,59.90
2017-09-06T21:26:10.867Z,60.20
2017-09-06T21:28:38.663Z,60.10
2017-09-06T21:31:13.965Z,60.60
2017-09-06T21:33:41.759Z,60.80
2017-09-06T21:36:15.498Z,61.00
2017-09-06T21:38:43.360Z,61.10
2017-09-06T21:41:14.712Z,61.20
2017-09-06T21:43:45.736Z,61.20
2017-09-06T21:46:15.144Z,61.60
2017-09-06T21:48:42.671Z,61.50
2017-09-06T21:51:10.478Z,61.60
2017-09-06T21:53:37.977Z,61.60
2017-09-06T21:56:15.380Z,61.80
2017-09-06T21:58:42.859Z,62.00
2017-09-06T22:01:10.343Z,62.20
2017-09-06T22:03:37.868Z,62.70
2017-09-06T22:06:05.378Z,62.80
2017-09-06T22:08:36.483Z,62.90
2017-09-06T22:11:04.739Z,63.20
2017-09-06T22:13:33.000Z,63.40
2017-09-06T22:16:06.800Z,63.30
2017-09-06T22:18:34.292Z,63.60
2017-09-06T22:21:02.165Z,63.60
2017-09-06T22:23:29.754Z,63.60
2017-09-06T22:25:57.303Z,63.80
2017-09-06T22:28:25.090Z,63.90
2017-09-06T22:30:55.782Z,63.90
2017-09-06T22:33:23.369Z,64.00
2017-09-06T22:35:51.215Z,64.00
2017-09-06T22:38:18.801Z,63.90
2017-09-06T22:40:54.519Z,63.80
2017-09-06T22:43:22.015Z,63.90
2017-09-06T22:45:55.938Z,63.70
2017-09-06T22:48:24.539Z,63.70
2017-09-06T22:50:52.027Z,63.80
2017-09-06T22:53:25.757Z,63.90
2017-09-06T22:55:54.361Z,63.70
2017-09-06T22:58:25.135Z,63.80
2017-09-06T23:00:52.901Z,64.00
2017-09-06T23:03:20.394Z,64.10
2017-09-06T23:05:54.721Z,64.30
2017-09-06T23:08:22.264Z,64.20
2017-09-06T23:10:49.806Z,64.20
2017-09-06T23:13:24.883Z,64.30
2017-09-06T23:15:55.707Z,64.30
2017-09-06T23:18:23.203Z,64.60
2017-09-06T23:20:50.695Z,64.80
2017-09-06T23:23:24.362Z,64.70
2017-09-06T23:25:55.196Z,64.70
2017-09-06T23:28:25.970Z,64.80
2017-09-06T23:30:53.454Z,64.60
2017-09-06T23:33:24.779Z,65.10
2017-09-06T23:35:55.465Z,65.30
2017-09-06T23:38:26.199Z,65.60
2017-09-06T23:40:53.810Z,65.70
2017-09-06T23:43:21.320Z,66.00
2017-09-06T23:45:49.173Z,66.30
2017-09-06T23:48:16.651Z,66.30
2017-09-06T23:50:44.171Z,66.60
2017-09-06T23:53:11.655Z,66.90
2017-09-06T23:55:45.731Z,67.10
2017-09-06T23:58:13.239Z,67.30
